createdAt,value
2022-12-18T00:01:29.578Z,81.85
2022-12-18T00:03:57.100Z,80.18
2022-12-18T00:06:25.984Z,81.72
2022-12-18T00:08:53.268Z,80.13
2022-12-18T00:11:22.858Z,84.43
2022-12-18T00:13:50.930Z,83.35
2022-12-18T00:16:23.650Z,87.45
2022-12-18T00:18:53.350Z,82.47
2022-12-18T00:21:21.474Z,71.05
2022-12-18T00:23:49.582Z,61.78
2022-12-18T00:26:20.537Z,55.42
2022-12-18T00:28:47.801Z,56.88
2022-12-18T00:31:20.801Z,59.58
2022-12-18T00:33:49.073Z,60.00
2022-12-18T00:36:23.085Z,65.00
2022-12-18T00:38:52.747Z,61.35
2022-12-18T00:41:39.920Z,60.28
2022-12-18T00:44:08.749Z,52.90
2022-12-18T00:46:35.666Z,50.38
2022-12-18T00:49:03.564Z,50.20
2022-12-18T00:51:30.466Z,47.28
2022-12-18T00:53:57.341Z,47.80
2022-12-18T00:56:25.299Z,42.60
2022-12-18T00:58:53.437Z,44.17
2022-12-18T01:01:20.968Z,46.22
2022-12-18T01:03:47.990Z,43.22
2022-12-18T01:06:17.799Z,39.80
2022-12-18T01:08:45.412Z,39.70
2022-12-18T01:11:23.162Z,39.03
2022-12-18T01:13:50.347Z,38.95
2022-12-18T01:16:18.337Z,40.17
2022-12-18T01:18:45.789Z,38.33
2022-12-18T01:21:15.841Z,40.83
2022-12-18T01:23:43.333Z,40.08
2022-12-18T01:26:13.216Z,40.83
2022-12-18T01:28:41.148Z,41.15
2022-12-18T01:31:34.529Z,41.90
2022-12-18T01:34:04.506Z,40.58
2022-12-18T01:36:34.359Z,41.63
2022-12-18T01:39:11.886Z,41.70
2022-12-18T01:42:12.126Z,41.17
2022-12-18T01:45:06.202Z,42.10
2022-12-18T01:47:53.909Z,40.65
2022-12-18T01:50:28.738Z,41.15
2022-12-18T01:53:05.628Z,40.20
2022-12-18T01:55:40.942Z,40.95
2022-12-18T01:58:08.421Z,38.13
2022-12-18T02:00:38.103Z,40.40
2022-12-18T02:03:05.536Z,39.05
2022-12-18T02:05:46.266Z,37.58
2022-12-18T02:08:43.928Z,39.63
2022-12-18T02:11:38.955Z,34.88
2022-12-18T02:14:33.355Z,36.95
2022-12-18T02:17:19.934Z,38.80
2022-12-18T02:20:06.648Z,37.70
2022-12-18T02:22:43.358Z,38.60
2022-12-18T02:25:51.416Z,37.20
2022-12-18T02:28:21.994Z,35.95
2022-12-18T02:30:52.478Z,35.65
2022-12-18T02:33:22.040Z,36.15
2022-12-18T02:35:54.098Z,35.70
2022-12-18T02:38:21.948Z,36.22
2022-12-18T02:40:56.980Z,34.20
2022-12-18T02:43:25.052Z,33.47
2022-12-18T02:45:57.316Z,36.08
2022-12-18T02:48:35.148Z,34.60
2022-12-18T02:51:02.096Z,35.88
2022-12-18T02:53:46.442Z,35.97
2022-12-18T02:56:20.025Z,36.83
2022-12-18T02:59:34.974Z,36.78
2022-12-18T03:02:14.136Z,36.28
2022-12-18T03:04:48.569Z,37.83
2022-12-18T03:07:24.532Z,36.20
2022-12-18T03:09:59.478Z,36.75
2022-12-18T03:12:40.763Z,37.63
2022-12-18T03:15:43.659Z,35.50
2022-12-18T03:18:21.410Z,37.90
2022-12-18T03:20:53.423Z,37.85
2022-12-18T03:23:27.174Z,36.17
2022-12-18T03:25:57.824Z,38.13
2022-12-18T03:28:31.595Z,38.50
2022-12-18T03:31:04.013Z,36.80
2022-12-18T03:33:47.510Z,37.10
2022-12-18T03:36:15.786Z,37.33
2022-12-18T03:38:42.884Z,38.50
2022-12-18T03:41:25.430Z,38.45
2022-12-18T03:44:13.933Z,39.25
2022-12-18T03:46:46.525Z,38.78
2022-12-18T03:49:18.085Z,39.73
2022-12-18T03:52:01.092Z,39.05
2022-12-18T03:54:31.239Z,39.17
2022-12-18T03:57:12.991Z,40.08
2022-12-18T03:59:41.142Z,38.70
2022-12-18T04:02:10.472Z,37.67
2022-12-18T04:04:40.745Z,37.95
2022-12-18T04:07:08.669Z,37.83
2022-12-18T04:09:40.355Z,37.80
2022-12-18T04:14:36.948Z,36.03
2022-12-18T04:17:07.374Z,39.67
2022-12-18T04:19:34.569Z,37.83
2022-12-18T04:22:02.967Z,39.72
2022-12-18T04:24:35.288Z,38.42
2022-12-18T04:27:08.850Z,39.95
2022-12-18T04:29:42.372Z,38.30
2022-12-18T04:32:10.071Z,40.92
2022-12-18T04:34:38.013Z,39.85
2022-12-18T04:37:05.473Z,40.85
2022-12-18T04:39:33.285Z,41.33
2022-12-18T04:42:05.887Z,39.33
2022-12-18T04:44:32.847Z,39.38
2022-12-18T04:46:59.630Z,40.47
2022-12-18T04:49:26.482Z,40.25
2022-12-18T04:51:54.662Z,40.22
2022-12-18T04:54:22.179Z,42.42
2022-12-18T04:56:49.881Z,41.65
2022-12-18T04:59:16.921Z,43.03
2022-12-18T05:01:44.029Z,41.47
2022-12-18T05:04:11.474Z,43.47
2022-12-18T05:06:38.421Z,44.10
2022-12-18T05:09:05.337Z,41.05
2022-12-18T05:11:32.862Z,41.47
2022-12-18T05:13:59.662Z,42.78
2022-12-18T05:16:26.524Z,44.20
2022-12-18T05:18:53.563Z,43.20
2022-12-18T05:21:20.364Z,45.85
2022-12-18T05:23:47.306Z,45.42
2022-12-18T05:26:18.360Z,46.70
2022-12-18T05:28:46.101Z,44.88
2022-12-18T05:31:13.084Z,45.72
2022-12-18T05:33:40.278Z,45.95
2022-12-18T05:36:09.003Z,45.22
2022-12-18T05:38:37.640Z,46.47
2022-12-18T05:41:06.165Z,46.55
2022-12-18T05:43:36.045Z,45.50
2022-12-18T05:46:07.509Z,46.55
2022-12-18T05:48:34.986Z,45.72
2022-12-18T05:51:08.119Z,45.50
2022-12-18T05:53:36.411Z,44.38
2022-12-18T05:56:05.779Z,45.95
2022-12-18T05:58:33.696Z,44.00
2022-12-18T06:01:08.550Z,44.55
2022-12-18T06:03:35.554Z,46.85
2022-12-18T06:06:02.984Z,44.15
2022-12-18T06:08:29.990Z,44.90
2022-12-18T06:10:56.822Z,43.22
2022-12-18T06:13:23.746Z,41.25
2022-12-18T06:15:50.662Z,43.38
2022-12-18T06:18:17.493Z,44.88
2022-12-18T06:20:44.314Z,43.50
2022-12-18T06:23:11.197Z,43.78
2022-12-18T06:25:39.654Z,44.22
2022-12-18T06:28:06.697Z,44.33
2022-12-18T06:30:33.486Z,44.70
2022-12-18T06:33:00.305Z,45.20
2022-12-18T06:35:27.193Z,44.17
2022-12-18T06:37:54.173Z,46.35
2022-12-18T06:40:21.275Z,44.60
2022-12-18T06:42:48.072Z,45.58
2022-12-18T06:45:17.668Z,44.53
2022-12-18T06:47:44.801Z,45.40
2022-12-18T06:50:13.205Z,45.60
2022-12-18T06:52:41.371Z,45.72
2022-12-18T06:55:09.943Z,46.05
2022-12-18T06:57:36.824Z,46.17
2022-12-18T07:00:05.480Z,44.67
2022-12-18T07:02:32.568Z,45.80
2022-12-18T07:04:59.707Z,45.95
2022-12-18T07:07:26.565Z,46.17
2022-12-18T07:09:53.396Z,44.70
2022-12-18T07:12:20.414Z,44.17
2022-12-18T07:14:47.250Z,39.88
2022-12-18T07:17:14.213Z,40.63
2022-12-18T07:19:41.010Z,39.83
2022-12-18T07:22:07.788Z,37.90
2022-12-18T07:24:35.672Z,37.13
2022-12-18T07:27:02.997Z,38.90
2022-12-18T07:29:29.942Z,35.47
2022-12-18T07:31:56.880Z,36.63
2022-12-18T07:34:23.783Z,39.15
2022-12-18T07:36:50.550Z,38.28
2022-12-18T07:39:17.319Z,40.67
2022-12-18T07:41:47.576Z,40.33
2022-12-18T07:44:16.506Z,38.30
2022-12-18T07:46:43.278Z,41.45
2022-12-18T07:49:10.117Z,40.45
2022-12-18T07:51:37.148Z,40.88
2022-12-18T07:54:04.322Z,41.22
2022-12-18T07:56:31.678Z,43.75
2022-12-18T07:59:00.276Z,41.95
2022-12-18T08:01:27.596Z,41.88
2022-12-18T08:03:54.837Z,42.65
2022-12-18T08:06:23.772Z,46.25
2022-12-18T08:08:55.794Z,37.72
2022-12-18T08:11:25.064Z,38.90
2022-12-18T08:13:52.588Z,39.50
2022-12-18T08:16:20.145Z,40.50
2022-12-18T08:18:47.839Z,37.05
2022-12-18T08:21:24.168Z,36.78
2022-12-18T08:23:52.856Z,34.58
2022-12-18T08:26:20.986Z,36.88
2022-12-18T08:28:48.190Z,36.92
2022-12-18T08:31:15.183Z,38.22
2022-12-18T08:33:42.820Z,37.95
2022-12-18T08:36:11.264Z,37.67
2022-12-18T08:38:38.282Z,38.75
2022-12-18T08:41:10.585Z,40.45
2022-12-18T08:43:55.956Z,40.15
2022-12-18T08:46:24.896Z,38.63
2022-12-18T08:48:52.984Z,39.25
2022-12-18T08:51:20.243Z,39.40
2022-12-18T08:53:47.811Z,35.80
2022-12-18T08:56:15.580Z,38.17
2022-12-18T08:58:43.053Z,37.45
2022-12-18T09:01:11.919Z,40.40
2022-12-18T09:03:40.232Z,40.22
2022-12-18T09:06:07.990Z,37.53
2022-12-18T09:08:34.923Z,36.63
2022-12-18T09:11:01.852Z,36.00
2022-12-18T09:13:28.776Z,36.58
2022-12-18T09:15:57.038Z,36.42
2022-12-18T09:18:24.795Z,36.20
2022-12-18T09:20:54.119Z,34.78
2022-12-18T09:23:22.127Z,35.43
2022-12-18T09:25:49.425Z,34.33
2022-12-18T09:28:22.052Z,32.70
2022-12-18T09:30:50.462Z,32.97
2022-12-18T09:33:18.440Z,30.98
2022-12-18T09:35:46.906Z,32.10
2022-12-18T09:38:17.051Z,32.47
2022-12-18T09:40:46.484Z,31.02
2022-12-18T09:43:20.646Z,31.15
2022-12-18T09:45:55.235Z,30.00
2022-12-18T09:48:29.422Z,26.88
2022-12-18T09:51:03.488Z,26.42
2022-12-18T09:53:36.043Z,25.60
2022-12-18T09:56:13.433Z,26.15
2022-12-18T09:58:48.964Z,24.00
2022-12-18T10:01:21.281Z,26.20
2022-12-18T10:03:48.833Z,20.08
2022-12-18T10:06:38.176Z,23.38
2022-12-18T10:09:38.135Z,23.85
2022-12-18T10:12:14.902Z,19.67
2022-12-18T10:15:01.007Z,20.77
2022-12-18T10:17:52.692Z,25.83
2022-12-18T10:20:42.532Z,17.40
2022-12-18T10:23:27.453Z,17.42
2022-12-18T10:26:02.304Z,16.40
2022-12-18T10:28:31.257Z,20.13
2022-12-18T10:30:58.261Z,18.75
2022-12-18T10:33:30.660Z,18.20
2022-12-18T10:35:57.544Z,18.00
2022-12-18T10:38:31.417Z,17.88
2022-12-18T10:41:01.147Z,19.23
2022-12-18T10:43:34.242Z,17.80
2022-12-18T10:46:21.794Z,15.95
2022-12-18T10:48:48.667Z,17.42
2022-12-18T10:51:31.730Z,17.02
2022-12-18T10:54:01.716Z,17.23
2022-12-18T10:56:32.375Z,16.35
2022-12-18T10:59:05.913Z,16.88
2022-12-18T11:01:55.235Z,18.02
2022-12-18T11:04:31.323Z,17.33
2022-12-18T11:07:02.834Z,17.38
2022-12-18T11:09:37.792Z,18.42
2022-12-18T11:12:19.420Z,18.83
2022-12-18T11:14:54.874Z,17.98
2022-12-18T11:17:36.907Z,19.13
2022-12-18T11:20:08.259Z,19.58
2022-12-18T11:22:37.665Z,19.00
2022-12-18T11:28:03.601Z,20.33
2022-12-18T11:30:33.455Z,20.75
2022-12-18T11:33:09.672Z,20.63
2022-12-18T11:35:43.325Z,19.35
2022-12-18T11:38:22.002Z,20.80
2022-12-18T11:40:57.515Z,19.75
2022-12-18T11:43:43.493Z,21.30
2022-12-18T11:46:19.642Z,20.90
2022-12-18T11:49:07.680Z,19.67
2022-12-18T11:52:11.118Z,21.73
2022-12-18T11:54:38.064Z,21.52
2022-12-18T11:57:23.185Z,21.98
2022-12-18T12:00:16.041Z,21.05
2022-12-18T12:03:04.061Z,23.05
2022-12-18T12:05:58.265Z,21.42
2022-12-18T12:08:57.829Z,20.98
2022-12-18T12:12:12.183Z,19.60
2022-12-18T12:14:50.923Z,21.70
2022-12-18T12:17:44.235Z,21.38
2022-12-18T12:20:28.516Z,20.05
2022-12-18T12:23:16.398Z,21.02
2022-12-18T12:25:50.745Z,20.88
2022-12-18T12:28:40.484Z,23.10
2022-12-18T12:31:45.628Z,23.63
2022-12-18T12:34:14.942Z,23.27
2022-12-18T12:36:53.738Z,23.10
2022-12-18T12:39:29.347Z,22.15
2022-12-18T12:42:15.541Z,22.58
2022-12-18T12:44:52.756Z,21.45
2022-12-18T12:47:32.298Z,24.77
2022-12-18T12:50:04.733Z,21.92
2022-12-18T12:52:44.543Z,23.13
2022-12-18T12:55:20.168Z,21.23
2022-12-18T12:58:21.070Z,20.80
2022-12-18T13:01:24.178Z,21.73
2022-12-18T13:04:06.381Z,21.10
2022-12-18T13:06:57.009Z,21.08
2022-12-18T13:09:24.759Z,21.52
2022-12-18T13:12:10.039Z,22.30
2022-12-18T13:14:39.900Z,23.17
2022-12-18T13:17:30.188Z,29.58
2022-12-18T13:20:12.196Z,23.92
2022-12-18T13:22:45.207Z,23.63
2022-12-18T13:25:36.865Z,24.40
2022-12-18T13:28:09.693Z,23.45
2022-12-18T13:30:36.703Z,24.33
2022-12-18T13:33:15.281Z,25.60
2022-12-18T13:35:53.898Z,28.08
2022-12-18T13:38:33.645Z,26.05
2022-12-18T13:41:18.659Z,25.27
2022-12-18T13:43:50.307Z,24.95
2022-12-18T13:46:42.701Z,25.85
2022-12-18T13:49:15.466Z,24.35
2022-12-18T13:51:49.330Z,27.92
2022-12-18T13:54:22.147Z,25.02
2022-12-18T13:56:50.104Z,25.30
2022-12-18T13:59:27.506Z,24.95
2022-12-18T14:02:02.999Z,25.63
2022-12-18T14:04:36.777Z,25.67
2022-12-18T14:07:23.039Z,24.77
2022-12-18T14:10:12.085Z,24.25
2022-12-18T14:12:57.618Z,24.27
2022-12-18T14:15:27.718Z,25.67
2022-12-18T14:18:01.184Z,24.63
2022-12-18T14:20:33.723Z,25.20
2022-12-18T14:23:01.670Z,26.73
2022-12-18T14:25:31.135Z,27.10
2022-12-18T14:28:15.553Z,26.80
2022-12-18T14:30:45.116Z,26.48
2022-12-18T14:33:17.088Z,27.95
2022-12-18T14:36:06.770Z,27.35
2022-12-18T14:38:41.056Z,26.38
2022-12-18T14:41:16.239Z,26.45
2022-12-18T14:43:49.092Z,27.10
2022-12-18T14:46:38.099Z,25.75
2022-12-18T14:49:20.018Z,25.92
2022-12-18T14:51:52.664Z,25.58
2022-12-18T14:54:21.458Z,26.55
2022-12-18T14:56:58.880Z,24.83
2022-12-18T14:59:28.181Z,27.40
2022-12-18T15:01:55.059Z,26.02
2022-12-18T15:04:42.065Z,27.60
2022-12-18T15:07:11.445Z,28.05
2022-12-18T15:09:40.601Z,26.98
2022-12-18T15:12:24.334Z,27.23
2022-12-18T15:14:51.190Z,27.05
2022-12-18T15:17:23.232Z,26.75
2022-12-18T15:19:54.601Z,27.48
2022-12-18T15:22:28.776Z,26.73
2022-12-18T15:24:57.678Z,27.55
2022-12-18T15:27:37.166Z,27.40
2022-12-18T15:30:09.970Z,31.98
2022-12-18T15:32:43.181Z,33.95
2022-12-18T15:35:10.103Z,35.40
2022-12-18T15:37:37.052Z,35.67
2022-12-18T15:40:04.843Z,37.28
2022-12-18T15:42:50.177Z,36.95
2022-12-18T15:45:17.464Z,38.80
2022-12-18T15:47:45.855Z,37.85
2022-12-18T15:50:12.724Z,39.40
2022-12-18T15:52:47.764Z,39.00
2022-12-18T15:55:35.645Z,40.50
2022-12-18T15:58:03.652Z,38.92
2022-12-18T16:00:30.798Z,40.60
2022-12-18T16:02:57.831Z,39.65
2022-12-18T16:05:25.518Z,40.95
2022-12-18T16:07:52.335Z,40.60
2022-12-18T16:10:19.239Z,41.13
2022-12-18T16:12:46.635Z,41.42
2022-12-18T16:15:18.451Z,43.20
2022-12-18T16:17:49.152Z,44.92
2022-12-18T16:20:22.059Z,46.63
2022-12-18T16:22:50.558Z,47.53
2022-12-18T16:25:23.798Z,46.72
2022-12-18T16:27:51.497Z,46.60
2022-12-18T16:30:21.644Z,48.10
2022-12-18T16:32:48.688Z,49.55
2022-12-18T16:35:17.418Z,49.85
2022-12-18T16:37:44.876Z,51.70
2022-12-18T16:40:14.482Z,50.53
2022-12-18T16:42:42.906Z,49.25
2022-12-18T16:45:12.530Z,48.15
2022-12-18T16:47:39.466Z,51.90
2022-12-18T16:50:07.418Z,52.13
2022-12-18T16:52:35.184Z,51.78
2022-12-18T16:55:02.207Z,49.70
2022-12-18T16:57:29.207Z,46.33
2022-12-18T16:59:59.912Z,45.35
2022-12-18T17:02:33.971Z,47.33
2022-12-18T17:05:01.286Z,47.40
2022-12-18T17:07:28.941Z,44.83
2022-12-18T17:09:56.350Z,53.20
2022-12-18T17:12:23.894Z,51.78
2022-12-18T17:14:50.733Z,49.78
2022-12-18T17:17:21.418Z,49.58
2022-12-18T17:19:49.269Z,49.17
2022-12-18T17:22:16.181Z,49.08
2022-12-18T17:24:43.052Z,47.95
2022-12-18T17:27:09.889Z,47.97
2022-12-18T17:29:39.136Z,46.42
2022-12-18T17:32:08.098Z,48.63
2022-12-18T17:34:34.900Z,48.28
2022-12-18T17:37:01.709Z,47.65
2022-12-18T17:39:30.829Z,58.28
2022-12-18T17:41:59.819Z,55.17
2022-12-18T17:44:27.024Z,53.72
2022-12-18T17:46:57.393Z,48.30
2022-12-18T17:49:25.671Z,46.60
2022-12-18T17:51:54.181Z,47.55
2022-12-18T17:54:21.131Z,51.53
2022-12-18T17:56:47.991Z,52.55
2022-12-18T17:59:14.979Z,68.90
2022-12-18T18:01:45.099Z,56.00
2022-12-18T18:04:12.797Z,70.47
2022-12-18T18:06:39.752Z,92.28
2022-12-18T18:09:16.110Z,84.40
2022-12-18T18:12:03.325Z,140.90
2022-12-18T18:14:30.571Z,143.05
2022-12-18T18:16:57.374Z,129.48
2022-12-18T18:19:33.075Z,135.65
2022-12-18T18:22:00.138Z,131.20
2022-12-18T18:24:27.261Z,120.18
2022-12-18T18:26:55.850Z,98.10
2022-12-18T18:29:26.539Z,107.63
2022-12-18T18:31:54.906Z,129.40
2022-12-18T18:34:24.554Z,137.27
2022-12-18T18:36:51.767Z,132.02
2022-12-18T18:39:19.638Z,147.77
2022-12-18T18:41:47.995Z,139.98
2022-12-18T18:44:16.893Z,123.32
2022-12-18T18:46:44.196Z,88.80
2022-12-18T18:49:11.671Z,76.38
2022-12-18T18:51:40.135Z,55.85
2022-12-18T18:54:06.970Z,59.13
2022-12-18T18:56:56.391Z,52.72
2022-12-18T18:59:21.500Z,58.50
2022-12-18T19:01:56.271Z,51.15
2022-12-18T19:04:23.166Z,51.45
2022-12-18T19:06:50.013Z,47.95
2022-12-18T19:09:17.640Z,44.38
2022-12-18T19:12:03.190Z,44.45
2022-12-18T19:14:30.312Z,43.33
2022-12-18T19:16:57.238Z,43.85
2022-12-18T19:19:25.455Z,41.70
2022-12-18T19:21:52.550Z,40.60
2022-12-18T19:24:22.288Z,40.63
2022-12-18T19:26:49.344Z,39.42
2022-12-18T19:29:16.299Z,41.92
2022-12-18T19:31:43.271Z,42.45
2022-12-18T19:34:10.280Z,41.47
2022-12-18T19:36:39.039Z,40.88
2022-12-18T19:39:17.221Z,39.45
2022-12-18T19:41:44.517Z,41.10
2022-12-18T19:44:13.956Z,41.60
2022-12-18T19:46:42.381Z,40.30
2022-12-18T19:49:10.963Z,38.60
2022-12-18T19:51:38.832Z,38.45
2022-12-18T19:54:05.724Z,37.70
2022-12-18T19:56:34.832Z,37.65
2022-12-18T19:59:03.445Z,35.92
2022-12-18T20:01:31.231Z,36.10
2022-12-18T20:03:59.719Z,36.47
2022-12-18T20:06:30.287Z,37.58
2022-12-18T20:09:00.552Z,37.75
2022-12-18T20:11:29.338Z,37.08
2022-12-18T20:13:56.870Z,40.47
2022-12-18T20:16:24.130Z,40.35
2022-12-18T20:18:51.402Z,39.15
2022-12-18T20:21:19.391Z,40.03
2022-12-18T20:23:46.448Z,39.35
2022-12-18T20:26:13.673Z,43.60
2022-12-18T20:28:40.827Z,44.58
2022-12-18T20:31:10.575Z,45.40
2022-12-18T20:33:41.564Z,56.80
2022-12-18T20:36:21.243Z,56.63
2022-12-18T20:38:49.750Z,62.95
2022-12-18T20:41:19.269Z,59.92
2022-12-18T20:43:46.151Z,60.65
2022-12-18T20:46:14.972Z,56.28
2022-12-18T20:48:42.905Z,59.83
2022-12-18T20:51:12.497Z,61.22
2022-12-18T20:53:40.262Z,64.80
2022-12-18T20:56:20.117Z,51.88
2022-12-18T20:58:55.045Z,55.88
2022-12-18T21:01:23.080Z,51.55
2022-12-18T21:03:50.896Z,47.85
2022-12-18T21:06:20.292Z,46.72
2022-12-18T21:08:47.190Z,44.33
2022-12-18T21:11:38.728Z,44.72
2022-12-18T21:14:10.040Z,44.17
2022-12-18T21:16:37.554Z,41.80
2022-12-18T21:19:04.444Z,43.95
2022-12-18T21:21:36.545Z,45.33
2022-12-18T21:24:06.971Z,42.65
2022-12-18T21:26:34.246Z,38.83
2022-12-18T21:29:04.373Z,37.20
2022-12-18T21:31:34.019Z,36.38
2022-12-18T21:34:02.379Z,33.20
2022-12-18T21:36:30.954Z,34.28
2022-12-18T21:38:59.055Z,33.95
2022-12-18T21:41:44.770Z,33.65
2022-12-18T21:44:15.203Z,34.35
2022-12-18T21:46:44.239Z,37.45
2022-12-18T21:49:14.558Z,36.20
2022-12-18T21:54:08.450Z,32.88
2022-12-18T21:56:45.277Z,31.90
2022-12-18T21:59:23.449Z,32.63
2022-12-18T22:01:51.839Z,31.73
2022-12-18T22:04:20.011Z,33.58
2022-12-18T22:06:48.587Z,33.05
2022-12-18T22:09:18.767Z,33.42
2022-12-18T22:11:46.268Z,34.38
2022-12-18T22:14:14.954Z,32.72
2022-12-18T22:16:44.568Z,38.08
2022-12-18T22:21:43.973Z,37.92
2022-12-18T22:24:15.270Z,37.35
2022-12-18T22:26:42.934Z,32.40
2022-12-18T22:29:33.394Z,31.58
2022-12-18T22:32:01.617Z,35.80
2022-12-18T22:34:28.735Z,41.33
2022-12-18T22:36:56.072Z,37.60
2022-12-18T22:39:26.676Z,37.53
2022-12-18T22:41:55.917Z,35.17
2022-12-18T22:44:25.782Z,32.55
2022-12-18T22:47:06.640Z,32.00
2022-12-18T22:49:35.318Z,31.10
2022-12-18T22:52:03.963Z,33.35
2022-12-18T22:54:30.994Z,32.45
2022-12-18T22:56:57.998Z,35.53
2022-12-18T22:59:25.118Z,33.95
2022-12-18T23:01:54.510Z,34.65
2022-12-18T23:04:35.957Z,34.83
2022-12-18T23:07:05.212Z,32.38
2022-12-18T23:09:32.839Z,32.33
2022-12-18T23:11:59.816Z,34.90
2022-12-18T23:14:27.711Z,34.10
2022-12-18T23:16:54.564Z,32.72
2022-12-18T23:19:22.672Z,36.13
2022-12-18T23:21:51.365Z,34.30
2022-12-18T23:24:18.454Z,34.53
2022-12-18T23:26:45.279Z,34.20
2022-12-18T23:29:12.164Z,37.28
2022-12-18T23:31:40.010Z,39.05
2022-12-18T23:34:08.063Z,43.13
2022-12-18T23:36:45.236Z,46.83
2022-12-18T23:39:20.889Z,48.85
2022-12-18T23:42:00.817Z,51.80
2022-12-18T23:44:28.268Z,50.38
2022-12-18T23:46:55.542Z,54.70
2022-12-18T23:49:22.494Z,54.10
2022-12-18T23:51:49.763Z,52.28
2022-12-18T23:54:16.674Z,51.55
2022-12-18T23:56:43.507Z,52.72
2022-12-18T23:59:10.586Z,53.95
